sensor_id;sensor_type;location;lat;lon;timestamp;pressure;altitude;pressure_sealevel;temperature
51693;BMP280;37777;53.066;21.638;2024-03-06T00:02:32;100990.25;;;5.56
51693;BMP280;37777;53.066;21.638;2024-03-06T00:09:33;100988.94;;;5.53
51693;BMP280;37777;53.066;21.638;2024-03-06T00:16:35;100998.69;;;5.49
51693;BMP280;37777;53.066;21.638;2024-03-06T00:23:36;100995.78;;;5.45
51693;BMP280;37777;53.066;21.638;2024-03-06T00:30:38;100996.84;;;5.44
51693;BMP280;37777;53.066;21.638;2024-03-06T00:37:40;101008.69;;;5.43
51693;BMP280;37777;53.066;21.638;2024-03-06T00:44:41;101010.84;;;5.41
51693;BMP280;37777;53.066;21.638;2024-03-06T00:51:43;101021.88;;;5.40
51693;BMP280;37777;53.066;21.638;2024-03-06T00:58:50;101020.88;;;5.36
51693;BMP280;37777;53.066;21.638;2024-03-06T01:05:51;101024.34;;;5.36
51693;BMP280;37777;53.066;21.638;2024-03-06T01:12:56;101018.75;;;5.33
51693;BMP280;37777;53.066;21.638;2024-03-06T01:19:58;101023.41;;;5.27
51693;BMP280;37777;53.066;21.638;2024-03-06T01:27:01;101037.09;;;5.25
51693;BMP280;37777;53.066;21.638;2024-03-06T01:34:06;101042.22;;;5.22
51693;BMP280;37777;53.066;21.638;2024-03-06T01:41:07;101034.47;;;5.20
51693;BMP280;37777;53.066;21.638;2024-03-06T01:48:09;101045.19;;;5.20
51693;BMP280;37777;53.066;21.638;2024-03-06T01:55:12;101037.72;;;5.17
51693;BMP280;37777;53.066;21.638;2024-03-06T02:02:13;101038.06;;;5.16
51693;BMP280;37777;53.066;21.638;2024-03-06T02:09:15;101052.25;;;5.16
51693;BMP280;37777;53.066;21.638;2024-03-06T02:16:17;101054.41;;;5.14
51693;BMP280;37777;53.066;21.638;2024-03-06T02:23:18;101056.06;;;5.10
51693;BMP280;37777;53.066;21.638;2024-03-06T02:30:21;101061.97;;;5.12
51693;BMP280;37777;53.066;21.638;2024-03-06T02:37:23;101065.56;;;5.02
51693;BMP280;37777;53.066;21.638;2024-03-06T02:44:25;101055.06;;;5.01
51693;BMP280;37777;53.066;21.638;2024-03-06T02:51:27;101066.41;;;4.98
51693;BMP280;37777;53.066;21.638;2024-03-06T02:58:29;101053.56;;;4.94
51693;BMP280;37777;53.066;21.638;2024-03-06T03:05:33;101066.22;;;4.89
51693;BMP280;37777;53.066;21.638;2024-03-06T03:12:34;101076.19;;;4.83
51693;BMP280;37777;53.066;21.638;2024-03-06T03:19:36;101078.44;;;4.76
51693;BMP280;37777;53.066;21.638;2024-03-06T03:26:38;101090.78;;;4.77
51693;BMP280;37777;53.066;21.638;2024-03-06T03:33:40;101091.31;;;4.74
51693;BMP280;37777;53.066;21.638;2024-03-06T03:40:41;101085.69;;;4.70
51693;BMP280;37777;53.066;21.638;2024-03-06T03:47:43;101091.91;;;4.66
51693;BMP280;37777;53.066;21.638;2024-03-06T03:54:45;101105.31;;;4.66
51693;BMP280;37777;53.066;21.638;2024-03-06T04:01:47;101106.47;;;4.59
51693;BMP280;37777;53.066;21.638;2024-03-06T04:08:48;101110.25;;;4.58
51693;BMP280;37777;53.066;21.638;2024-03-06T04:15:50;101109.72;;;4.51
51693;BMP280;37777;53.066;21.638;2024-03-06T04:22:52;101108.69;;;4.47
51693;BMP280;37777;53.066;21.638;2024-03-06T04:29:53;101120.03;;;4.39
51693;BMP280;37777;53.066;21.638;2024-03-06T04:36:55;101127.53;;;4.37
51693;BMP280;37777;53.066;21.638;2024-03-06T04:43:56;101135.88;;;4.35
51693;BMP280;37777;53.066;21.638;2024-03-06T04:50:59;101143.41;;;4.33
51693;BMP280;37777;53.066;21.638;2024-03-06T04:58:01;101147.94;;;4.33
51693;BMP280;37777;53.066;21.638;2024-03-06T05:05:03;101150.63;;;4.33
51693;BMP280;37777;53.066;21.638;2024-03-06T05:12:25;101159.72;;;4.32
51693;BMP280;37777;53.066;21.638;2024-03-06T05:19:46;101161.63;;;4.26
51693;BMP280;37777;53.066;21.638;2024-03-06T05:27:06;101168.34;;;4.23
51693;BMP280;37777;53.066;21.638;2024-03-06T05:34:25;101175.09;;;4.11
51693;BMP280;37777;53.066;21.638;2024-03-06T05:41:44;101181.59;;;4.04
51693;BMP280;37777;53.066;21.638;2024-03-06T05:49:02;101184.31;;;3.99
51693;BMP280;37777;53.066;21.638;2024-03-06T05:56:23;101193.16;;;3.95
51693;BMP280;37777;53.066;21.638;2024-03-06T06:03:42;101201.16;;;4.00
51693;BMP280;37777;53.066;21.638;2024-03-06T06:10:43;101205.97;;;4.03
51693;BMP280;37777;53.066;21.638;2024-03-06T06:17:45;101217.50;;;3.98
51693;BMP280;37777;53.066;21.638;2024-03-06T06:24:47;101215.38;;;3.95
51693;BMP280;37777;53.066;21.638;2024-03-06T06:31:49;101220.44;;;4.02
51693;BMP280;37777;53.066;21.638;2024-03-06T06:38:51;101230.59;;;4.05
51693;BMP280;37777;53.066;21.638;2024-03-06T06:45:53;101242.91;;;4.06
51693;BMP280;37777;53.066;21.638;2024-03-06T06:52:55;101238.06;;;4.13
51693;BMP280;37777;53.066;21.638;2024-03-06T06:59:57;101260.03;;;4.20
51693;BMP280;37777;53.066;21.638;2024-03-06T07:06:58;101272.00;;;4.33
51693;BMP280;37777;53.066;21.638;2024-03-06T07:14:00;101264.22;;;4.37
51693;BMP280;37777;53.066;21.638;2024-03-06T07:21:02;101271.47;;;4.31
51693;BMP280;37777;53.066;21.638;2024-03-06T07:28:03;101276.81;;;4.41
51693;BMP280;37777;53.066;21.638;2024-03-06T07:35:05;101280.78;;;4.44
51693;BMP280;37777;53.066;21.638;2024-03-06T07:42:10;101283.97;;;4.46
51693;BMP280;37777;53.066;21.638;2024-03-06T07:57:33;101303.75;;;4.61
51693;BMP280;37777;53.066;21.638;2024-03-06T08:04:36;101309.56;;;4.78
51693;BMP280;37777;53.066;21.638;2024-03-06T08:11:37;101313.25;;;4.87
51693;BMP280;37777;53.066;21.638;2024-03-06T08:18:39;101318.75;;;5.06
51693;BMP280;37777;53.066;21.638;2024-03-06T08:25:40;101322.72;;;5.14
51693;BMP280;37777;53.066;21.638;2024-03-06T08:32:42;101329.88;;;5.24
51693;BMP280;37777;53.066;21.638;2024-03-06T08:39:45;101334.13;;;5.30
51693;BMP280;37777;53.066;21.638;2024-03-06T08:46:47;101333.91;;;5.26
51693;BMP280;37777;53.066;21.638;2024-03-06T08:53:48;101339.41;;;5.40
51693;BMP280;37777;53.066;21.638;2024-03-06T09:00:50;101343.84;;;5.55
51693;BMP280;37777;53.066;21.638;2024-03-06T09:07:51;101358.03;;;5.61
51693;BMP280;37777;53.066;21.638;2024-03-06T09:14:53;101364.69;;;5.69
51693;BMP280;37777;53.066;21.638;2024-03-06T09:21:54;101361.34;;;5.82
51693;BMP280;37777;53.066;21.638;2024-03-06T09:28:56;101373.59;;;5.88
51693;BMP280;37777;53.066;21.638;2024-03-06T09:35:58;101372.53;;;5.89
51693;BMP280;37777;53.066;21.638;2024-03-06T09:43:00;101373.56;;;5.93
51693;BMP280;37777;53.066;21.638;2024-03-06T09:50:01;101381.97;;;6.11
51693;BMP280;37777;53.066;21.638;2024-03-06T09:57:06;101382.94;;;6.20
51693;BMP280;37777;53.066;21.638;2024-03-06T10:04:20;101380.13;;;6.30
51693;BMP280;37777;53.066;21.638;2024-03-06T10:19:44;101382.25;;;6.33
51693;BMP280;37777;53.066;21.638;2024-03-06T10:26:54;101385.34;;;6.46
51693;BMP280;37777;53.066;21.638;2024-03-06T10:33:56;101389.44;;;6.62
51693;BMP280;37777;53.066;21.638;2024-03-06T10:40:57;101390.94;;;6.49
51693;BMP280;37777;53.066;21.638;2024-03-06T10:48:00;101395.69;;;6.58
51693;BMP280;37777;53.066;21.638;2024-03-06T11:11:53;101392.53;;;6.50
51693;BMP280;37777;53.066;21.638;2024-03-06T11:19:08;101393.72;;;6.63
51693;BMP280;37777;53.066;21.638;2024-03-06T11:26:10;101395.75;;;6.91
51693;BMP280;37777;53.066;21.638;2024-03-06T11:33:14;101392.69;;;6.59
51693;BMP280;37777;53.066;21.638;2024-03-06T11:40:24;101388.56;;;6.24
51693;BMP280;37777;53.066;21.638;2024-03-06T11:55:58;101396.69;;;7.00
51693;BMP280;37777;53.066;21.638;2024-03-06T12:02:59;101385.00;;;6.91
51693;BMP280;37777;53.066;21.638;2024-03-06T12:10:02;101388.69;;;7.14
51693;BMP280;37777;53.066;21.638;2024-03-06T12:17:03;101384.34;;;7.18
51693;BMP280;37777;53.066;21.638;2024-03-06T12:24:07;101396.47;;;7.15
51693;BMP280;37777;53.066;21.638;2024-03-06T12:31:11;101394.88;;;7.14
51693;BMP280;37777;53.066;21.638;2024-03-06T12:38:16;101393.22;;;6.80
51693;BMP280;37777;53.066;21.638;2024-03-06T12:45:37;101393.22;;;6.99
51693;BMP280;37777;53.066;21.638;2024-03-06T12:52:39;101395.31;;;6.83
51693;BMP280;37777;53.066;21.638;2024-03-06T13:08:02;101399.75;;;6.55
51693;BMP280;37777;53.066;21.638;2024-03-06T13:15:05;101402.38;;;6.60
51693;BMP280;37777;53.066;21.638;2024-03-06T13:22:20;101405.28;;;6.64
51693;BMP280;37777;53.066;21.638;2024-03-06T13:29:23;101403.00;;;6.52
51693;BMP280;37777;53.066;21.638;2024-03-06T13:44:59;101414.75;;;6.56
51693;BMP280;37777;53.066;21.638;2024-03-06T13:52:00;101401.31;;;6.37
51693;BMP280;37777;53.066;21.638;2024-03-06T13:59:05;101408.63;;;6.31
51693;BMP280;37777;53.066;21.638;2024-03-06T14:22:50;101431.91;;;6.17
51693;BMP280;37777;53.066;21.638;2024-03-06T14:29:52;101422.75;;;6.18
51693;BMP280;37777;53.066;21.638;2024-03-06T14:36:55;101430.97;;;6.27
51693;BMP280;37777;53.066;21.638;2024-03-06T14:43:57;101437.63;;;6.10
51693;BMP280;37777;53.066;21.638;2024-03-06T14:51:10;101443.31;;;6.04
51693;BMP280;37777;53.066;21.638;2024-03-06T14:58:12;101448.22;;;5.96
51693;BMP280;37777;53.066;21.638;2024-03-06T15:05:14;101448.00;;;5.93
51693;BMP280;37777;53.066;21.638;2024-03-06T15:12:15;101456.09;;;5.88
51693;BMP280;37777;53.066;21.638;2024-03-06T15:19:20;101465.22;;;5.87
51693;BMP280;37777;53.066;21.638;2024-03-06T15:26:21;101464.78;;;5.79
51693;BMP280;37777;53.066;21.638;2024-03-06T15:33:23;101471.56;;;5.67
51693;BMP280;37777;53.066;21.638;2024-03-06T15:40:26;101484.75;;;5.63
51693;BMP280;37777;53.066;21.638;2024-03-06T15:47:27;101474.66;;;5.50
51693;BMP280;37777;53.066;21.638;2024-03-06T15:54:29;101484.66;;;5.39
51693;BMP280;37777;53.066;21.638;2024-03-06T16:44:16;101506.28;;;5.08
51693;BMP280;37777;53.066;21.638;2024-03-06T16:51:23;101521.31;;;5.09
51693;BMP280;37777;53.066;21.638;2024-03-06T16:58:24;101523.50;;;4.97
51693;BMP280;37777;53.066;21.638;2024-03-06T17:05:26;101533.16;;;4.87
51693;BMP280;37777;53.066;21.638;2024-03-06T17:21:31;101544.47;;;4.69
51693;BMP280;37777;53.066;21.638;2024-03-06T17:28:38;101541.84;;;4.53
51693;BMP280;37777;53.066;21.638;2024-03-06T17:35:44;101552.84;;;4.31
51693;BMP280;37777;53.066;21.638;2024-03-06T17:42:47;101562.22;;;4.23
51693;BMP280;37777;53.066;21.638;2024-03-06T17:49:48;101559.00;;;4.06
51693;BMP280;37777;53.066;21.638;2024-03-06T17:56:50;101558.47;;;3.99
51693;BMP280;37777;53.066;21.638;2024-03-06T18:03:52;101568.09;;;3.95
51693;BMP280;37777;53.066;21.638;2024-03-06T18:10:55;101567.00;;;3.90
51693;BMP280;37777;53.066;21.638;2024-03-06T18:18:14;101570.19;;;3.82
51693;BMP280;37777;53.066;21.638;2024-03-06T18:25:16;101588.69;;;3.84
51693;BMP280;37777;53.066;21.638;2024-03-06T18:32:20;101590.03;;;3.86
51693;BMP280;37777;53.066;21.638;2024-03-06T18:39:22;101594.63;;;3.91
51693;BMP280;37777;53.066;21.638;2024-03-06T18:46:23;101598.34;;;3.90
51693;BMP280;37777;53.066;21.638;2024-03-06T18:53:25;101597.56;;;3.89
51693;BMP280;37777;53.066;21.638;2024-03-06T19:00:26;101611.44;;;3.71
51693;BMP280;37777;53.066;21.638;2024-03-06T19:07:28;101618.59;;;3.60
51693;BMP280;37777;53.066;21.638;2024-03-06T19:14:30;101614.81;;;3.46
51693;BMP280;37777;53.066;21.638;2024-03-06T19:21:31;101626.78;;;3.33
51693;BMP280;37777;53.066;21.638;2024-03-06T19:28:33;101634.22;;;3.20
51693;BMP280;37777;53.066;21.638;2024-03-06T19:35:34;101637.06;;;3.09
51693;BMP280;37777;53.066;21.638;2024-03-06T19:42:36;101639.44;;;3.05
51693;BMP280;37777;53.066;21.638;2024-03-06T19:49:37;101647.22;;;3.07
51693;BMP280;37777;53.066;21.638;2024-03-06T19:56:42;101643.69;;;2.96
51693;BMP280;37777;53.066;21.638;2024-03-06T20:03:43;101646.53;;;2.84
51693;BMP280;37777;53.066;21.638;2024-03-06T20:19:07;101639.19;;;2.69
51693;BMP280;37777;53.066;21.638;2024-03-06T20:26:09;101649.09;;;2.41
51693;BMP280;37777;53.066;21.638;2024-03-06T20:50:01;101643.50;;;2.15
51693;BMP280;37777;53.066;21.638;2024-03-06T20:57:03;101652.06;;;2.17
51693;BMP280;37777;53.066;21.638;2024-03-06T21:04:05;101660.38;;;2.21
51693;BMP280;37777;53.066;21.638;2024-03-06T21:11:07;101659.59;;;1.98
51693;BMP280;37777;53.066;21.638;2024-03-06T21:18:09;101668.97;;;1.79
51693;BMP280;37777;53.066;21.638;2024-03-06T21:25:11;101663.69;;;1.84
51693;BMP280;37777;53.066;21.638;2024-03-06T21:32:13;101671.38;;;1.80
51693;BMP280;37777;53.066;21.638;2024-03-06T21:39:15;101671.72;;;1.67
51693;BMP280;37777;53.066;21.638;2024-03-06T21:46:16;101674.16;;;1.68
51693;BMP280;37777;53.066;21.638;2024-03-06T21:53:18;101674.50;;;1.38
51693;BMP280;37777;53.066;21.638;2024-03-06T22:00:20;101678.09;;;1.44
51693;BMP280;37777;53.066;21.638;2024-03-06T22:07:21;101676.97;;;1.40
51693;BMP280;37777;53.066;21.638;2024-03-06T22:31:07;101683.88;;;1.19
51693;BMP280;37777;53.066;21.638;2024-03-06T22:38:09;101685.13;;;0.99
51693;BMP280;37777;53.066;21.638;2024-03-06T22:45:12;101695.38;;;0.90
51693;BMP280;37777;53.066;21.638;2024-03-06T22:52:15;101687.94;;;0.92
51693;BMP280;37777;53.066;21.638;2024-03-06T22:59:16;101700.00;;;0.95
51693;BMP280;37777;53.066;21.638;2024-03-06T23:06:18;101694.88;;;0.76
51693;BMP280;37777;53.066;21.638;2024-03-06T23:13:19;101688.00;;;0.80
51693;BMP280;37777;53.066;21.638;2024-03-06T23:20:21;101701.03;;;0.65
51693;BMP280;37777;53.066;21.638;2024-03-06T23:27:22;101700.91;;;0.43
51693;BMP280;37777;53.066;21.638;2024-03-06T23:34:24;101707.00;;;0.26
51693;BMP280;37777;53.066;21.638;2024-03-06T23:41:26;101708.31;;;0.41
51693;BMP280;37777;53.066;21.638;2024-03-06T23:48:36;101702.59;;;0.32
51693;BMP280;37777;53.066;21.638;2024-03-06T23:55:38;101697.63;;;0.24
